createdAt,value
2022-09-18T00:01:41.827Z,99364.15
2022-09-18T00:04:14.613Z,99377.11
2022-09-18T00:06:45.331Z,99376.12
2022-09-18T00:09:16.190Z,99375.38
2022-09-18T00:11:47.738Z,99372.13
2022-09-18T00:14:20.719Z,99368.15
2022-09-18T00:16:50.614Z,99355.11
2022-09-18T00:19:19.666Z,99350.32
2022-09-18T00:21:51.257Z,99346.07
2022-09-18T00:24:22.567Z,99333.87
2022-09-18T00:26:51.956Z,99326.23
2022-09-18T00:29:20.463Z,99325.30
2022-09-18T00:31:49.100Z,99329.81
2022-09-18T00:34:17.782Z,99333.31
2022-09-18T00:36:46.478Z,99333.93
2022-09-18T00:39:14.996Z,99320.52
2022-09-18T00:41:44.862Z,99307.26
2022-09-18T00:44:36.897Z,99301.30
2022-09-18T00:47:11.428Z,99298.48
2022-09-18T00:49:45.229Z,99301.79
2022-09-18T00:52:16.264Z,99306.52
2022-09-18T00:54:52.041Z,99305.10
2022-09-18T00:57:27.922Z,99305.75
2022-09-18T00:59:58.308Z,99298.10
2022-09-18T01:02:27.046Z,99298.64
2022-09-18T01:04:56.688Z,99295.33
2022-09-18T01:07:37.195Z,99297.17
2022-09-18T01:10:26.799Z,99293.71
2022-09-18T01:13:31.292Z,99301.75
2022-09-18T01:16:09.557Z,99322.14
2022-09-18T01:19:21.787Z,99315.98
2022-09-18T01:22:10.125Z,99315.21
2022-09-18T01:24:59.087Z,99316.01
2022-09-18T01:27:36.484Z,99323.16
2022-09-18T01:30:11.470Z,99316.58
2022-09-18T01:33:00.797Z,99306.71
2022-09-18T01:35:41.956Z,99306.11
2022-09-18T01:38:32.307Z,99298.25
2022-09-18T01:41:06.960Z,99298.91
2022-09-18T01:43:38.517Z,99294.16
2022-09-18T01:46:12.127Z,99290.79
2022-09-18T01:48:57.466Z,99296.18
2022-09-18T01:51:35.472Z,99303.95
2022-09-18T01:54:09.472Z,99305.19
2022-09-18T01:56:42.750Z,99307.77
2022-09-18T01:59:17.036Z,99312.77
2022-09-18T02:02:00.573Z,99324.10
2022-09-18T02:04:31.977Z,99329.30
2022-09-18T02:07:14.770Z,99336.59
2022-09-18T02:09:44.926Z,99337.86
2022-09-18T02:12:18.699Z,99326.63
2022-09-18T02:14:52.649Z,99318.73
2022-09-18T02:17:49.543Z,99309.25
2022-09-18T02:20:23.410Z,99310.23
2022-09-18T02:22:59.927Z,99307.50
2022-09-18T02:25:35.349Z,99305.91
2022-09-18T02:28:08.467Z,99307.41
2022-09-18T02:30:41.391Z,99310.67
2022-09-18T02:33:30.253Z,99304.55
2022-09-18T02:36:04.866Z,99302.25
2022-09-18T02:38:41.500Z,99304.98
2022-09-18T02:41:30.031Z,99307.67
2022-09-18T02:44:28.374Z,99313.19
2022-09-18T02:47:29.743Z,99319.95
2022-09-18T02:50:01.051Z,99322.45
2022-09-18T02:52:35.929Z,99328.36
2022-09-18T02:55:07.767Z,99325.00
2022-09-18T02:57:41.811Z,99325.81
2022-09-18T03:00:17.188Z,99327.36
2022-09-18T03:02:47.947Z,99336.34
2022-09-18T03:05:22.520Z,99347.34
2022-09-18T03:07:57.623Z,99348.59
2022-09-18T03:10:28.045Z,99343.72
2022-09-18T03:12:56.621Z,99344.36
2022-09-18T03:15:25.131Z,99343.88
2022-09-18T03:17:53.648Z,99340.30
2022-09-18T03:20:22.185Z,99339.52
2022-09-18T03:22:50.785Z,99341.06
2022-09-18T03:25:19.908Z,99343.30
2022-09-18T03:27:48.528Z,99340.85
2022-09-18T03:30:27.782Z,99338.89
2022-09-18T03:32:56.934Z,99334.58
2022-09-18T03:35:25.772Z,99330.95
2022-09-18T03:37:56.342Z,99339.98
2022-09-18T03:40:27.811Z,99349.70
2022-09-18T03:42:56.946Z,99359.63
2022-09-18T03:45:27.067Z,99359.33
2022-09-18T03:47:56.331Z,99363.41
2022-09-18T03:50:25.843Z,99384.06
2022-09-18T03:52:54.750Z,99380.50
2022-09-18T03:55:41.279Z,99363.06
2022-09-18T03:58:24.951Z,99366.85
2022-09-18T04:01:20.531Z,99360.98
2022-09-18T04:04:09.386Z,99357.86
2022-09-18T04:07:00.909Z,99344.52
2022-09-18T04:09:47.788Z,99339.35
2022-09-18T04:12:17.062Z,99349.06
2022-09-18T04:14:46.610Z,99357.51
2022-09-18T04:17:15.660Z,99366.13
2022-09-18T04:19:44.058Z,99349.97
2022-09-18T04:22:12.903Z,99336.64
2022-09-18T04:24:41.694Z,99347.80
2022-09-18T04:27:10.214Z,99359.89
2022-09-18T04:29:39.877Z,99372.27
2022-09-18T04:32:09.846Z,99373.19
2022-09-18T04:34:38.461Z,99370.20
2022-09-18T04:37:10.366Z,99372.15
2022-09-18T04:39:39.617Z,99378.31
2022-09-18T04:42:08.406Z,99380.75
2022-09-18T04:44:37.017Z,99383.82
2022-09-18T04:47:06.719Z,99383.41
2022-09-18T04:49:35.471Z,99394.70
2022-09-18T04:52:04.107Z,99413.53
2022-09-18T04:54:33.189Z,99417.58
2022-09-18T04:57:02.185Z,99424.67
2022-09-18T04:59:30.632Z,99420.76
2022-09-18T05:01:59.955Z,99409.34
2022-09-18T05:04:28.649Z,99415.69
2022-09-18T05:07:07.170Z,99414.98
2022-09-18T05:09:37.469Z,99416.61
2022-09-18T05:12:07.165Z,99419.40
2022-09-18T05:14:37.288Z,99413.73
2022-09-18T05:17:07.702Z,99416.36
2022-09-18T05:19:39.409Z,99419.96
2022-09-18T05:22:22.380Z,99426.61
2022-09-18T05:24:52.204Z,99423.48
2022-09-18T05:27:24.801Z,99416.07
2022-09-18T05:29:55.966Z,99430.75
2022-09-18T05:32:29.056Z,99434.29
2022-09-18T05:34:57.783Z,99431.79
2022-09-18T05:37:26.365Z,99430.83
2022-09-18T05:39:56.838Z,99440.11
2022-09-18T05:42:25.576Z,99443.52
2022-09-18T05:44:54.717Z,99447.67
2022-09-18T05:47:25.859Z,99453.09
2022-09-18T05:49:55.903Z,99449.60
2022-09-18T05:52:25.512Z,99455.56
2022-09-18T05:54:54.403Z,99461.02
2022-09-18T05:57:23.280Z,99467.72
2022-09-18T05:59:52.287Z,99468.46
2022-09-18T06:02:21.202Z,99469.70
2022-09-18T06:05:04.204Z,99470.14
2022-09-18T06:07:32.994Z,99474.42
2022-09-18T06:10:04.599Z,99469.90
2022-09-18T06:12:33.508Z,99473.86
2022-09-18T06:15:03.866Z,99479.97
2022-09-18T06:17:33.275Z,99482.58
2022-09-18T06:20:05.887Z,99485.17
2022-09-18T06:22:34.797Z,99481.48
2022-09-18T06:25:05.544Z,99486.78
2022-09-18T06:27:36.048Z,99498.89
2022-09-18T06:30:06.188Z,99514.73
2022-09-18T06:32:35.425Z,99521.27
2022-09-18T06:35:04.824Z,99527.03
2022-09-18T06:37:33.512Z,99526.99
2022-09-18T06:40:02.432Z,99528.18
2022-09-18T06:42:58.910Z,99521.72
2022-09-18T06:45:55.339Z,99524.43
2022-09-18T06:48:27.033Z,99537.45
2022-09-18T06:50:58.282Z,99552.09
2022-09-18T06:53:27.584Z,99564.08
2022-09-18T06:56:00.776Z,99564.30
2022-09-18T06:58:30.092Z,99570.33
2022-09-18T07:01:01.374Z,99569.48
2022-09-18T07:03:35.857Z,99570.33
2022-09-18T07:06:20.098Z,99569.22
2022-09-18T07:08:50.833Z,99573.81
2022-09-18T07:11:42.562Z,99572.17
2022-09-18T07:14:11.349Z,99576.54
2022-09-18T07:16:39.987Z,99582.36
2022-09-18T07:19:09.480Z,99576.20
2022-09-18T07:21:39.937Z,99576.00
2022-09-18T07:24:08.863Z,99580.61
2022-09-18T07:26:37.998Z,99581.74
2022-09-18T07:29:10.077Z,99595.00
2022-09-18T07:31:39.604Z,99604.08
2022-09-18T07:34:09.749Z,99607.15
2022-09-18T07:36:38.956Z,99613.95
2022-09-18T07:39:08.256Z,99614.95
2022-09-18T07:41:50.454Z,99619.99
2022-09-18T07:44:19.140Z,99624.05
2022-09-18T07:46:48.814Z,99628.48
2022-09-18T07:49:18.560Z,99633.10
2022-09-18T07:51:48.815Z,99633.40
2022-09-18T07:54:18.194Z,99630.60
2022-09-18T07:56:56.708Z,99634.27
2022-09-18T07:59:26.928Z,99641.19
2022-09-18T08:01:59.529Z,99641.46
2022-09-18T08:04:31.264Z,99644.73
2022-09-18T08:07:11.731Z,99652.31
2022-09-18T08:09:56.799Z,99653.14
2022-09-18T08:12:38.183Z,99652.00
2022-09-18T08:15:34.526Z,99650.77
2022-09-18T08:18:27.575Z,99651.52
2022-09-18T08:21:01.486Z,99658.04
2022-09-18T08:23:42.566Z,99666.40
2022-09-18T08:26:11.555Z,99669.05
2022-09-18T08:28:41.879Z,99670.15
2022-09-18T08:31:10.677Z,99668.08
2022-09-18T08:33:40.590Z,99661.22
2022-09-18T08:36:11.331Z,99664.92
2022-09-18T08:38:48.408Z,99663.98
2022-09-18T08:41:37.159Z,99669.07
2022-09-18T08:44:24.550Z,99682.36
2022-09-18T08:47:05.783Z,99681.56
2022-09-18T08:49:58.310Z,99686.36
2022-09-18T08:52:35.246Z,99682.88
2022-09-18T08:55:33.662Z,99684.13
2022-09-18T08:58:35.952Z,99685.59
2022-09-18T09:01:15.555Z,99686.59
2022-09-18T09:04:11.342Z,99694.03
2022-09-18T09:06:46.252Z,99699.80
2022-09-18T09:10:04.598Z,99698.10
2022-09-18T09:13:01.343Z,99704.50
2022-09-18T09:15:30.233Z,99701.48
2022-09-18T09:18:23.599Z,99701.88
2022-09-18T09:20:54.029Z,99706.55
2022-09-18T09:23:57.325Z,99709.89
2022-09-18T09:26:46.084Z,99717.79
2022-09-18T09:29:46.093Z,99724.66
2022-09-18T09:32:31.353Z,99724.77
2022-09-18T09:35:25.461Z,99725.08
2022-09-18T09:38:37.667Z,99725.48
2022-09-18T09:41:18.436Z,99726.67
2022-09-18T09:43:57.215Z,99730.58
2022-09-18T09:46:52.822Z,99740.33
2022-09-18T09:49:22.285Z,99750.23
2022-09-18T09:52:09.160Z,99756.10
2022-09-18T09:54:39.324Z,99759.73
2022-09-18T09:57:27.980Z,99771.54
2022-09-18T10:00:14.249Z,99776.89
2022-09-18T10:03:15.527Z,99784.15
2022-09-18T10:05:54.019Z,99789.00
2022-09-18T10:08:40.748Z,99795.27
2022-09-18T10:11:12.083Z,99798.89
2022-09-18T10:13:59.215Z,99801.75
2022-09-18T10:16:31.414Z,99804.68
2022-09-18T10:19:01.570Z,99812.25
2022-09-18T10:21:36.524Z,99824.30
2022-09-18T10:24:20.382Z,99824.42
2022-09-18T10:26:58.872Z,99837.64
2022-09-18T10:29:27.441Z,99836.87
2022-09-18T10:32:01.360Z,99835.67
2022-09-18T10:34:37.348Z,99831.69
2022-09-18T10:37:06.958Z,99836.63
2022-09-18T10:39:39.637Z,99839.80
2022-09-18T10:42:16.679Z,99848.02
2022-09-18T10:45:01.772Z,99852.89
2022-09-18T10:47:37.241Z,99854.89
2022-09-18T10:50:11.985Z,99857.52
2022-09-18T10:52:48.884Z,99862.42
2022-09-18T10:55:29.516Z,99865.55
2022-09-18T10:58:06.996Z,99870.50
2022-09-18T11:00:39.916Z,99872.13
2022-09-18T11:03:33.679Z,99879.92
2022-09-18T11:06:06.857Z,99889.81
2022-09-18T11:08:42.321Z,99896.07
2022-09-18T11:11:21.051Z,99888.65
2022-09-18T11:13:59.203Z,99892.20
2022-09-18T11:16:52.349Z,99897.77
2022-09-18T11:19:31.350Z,99903.27
2022-09-18T11:22:07.003Z,99907.48
2022-09-18T11:24:46.642Z,99912.13
2022-09-18T11:27:23.407Z,99916.52
2022-09-18T11:30:15.106Z,99920.17
2022-09-18T11:32:47.342Z,99925.02
2022-09-18T11:35:19.553Z,99927.86
2022-09-18T11:37:53.817Z,99923.77
2022-09-18T11:40:27.655Z,99923.33
2022-09-18T11:42:57.694Z,99920.54
2022-09-18T11:45:46.581Z,99918.30
2022-09-18T11:48:37.157Z,99917.34
2022-09-18T11:51:15.807Z,99928.34
2022-09-18T11:53:49.131Z,99936.08
2022-09-18T11:56:47.971Z,99942.16
2022-09-18T11:59:57.206Z,99955.98
2022-09-18T12:02:37.124Z,99960.99
2022-09-18T12:05:28.476Z,99967.08
2022-09-18T12:08:01.027Z,99971.76
2022-09-18T12:11:03.808Z,99978.92
2022-09-18T12:13:45.812Z,99978.90
2022-09-18T12:16:26.452Z,99975.02
2022-09-18T12:19:22.541Z,99978.91
2022-09-18T12:22:13.094Z,99990.67
2022-09-18T12:24:42.265Z,99993.49
2022-09-18T12:27:27.070Z,100001.16
2022-09-18T12:30:28.817Z,100009.58
2022-09-18T12:33:13.555Z,100011.61
2022-09-18T12:35:45.329Z,100017.06
2022-09-18T12:38:19.885Z,100018.73
2022-09-18T12:41:10.127Z,100028.59
2022-09-18T12:43:44.642Z,100035.02
2022-09-18T12:46:33.191Z,100034.64
2022-09-18T12:49:26.121Z,100034.84
2022-09-18T12:52:16.518Z,100037.55
2022-09-18T12:55:13.198Z,100038.04
2022-09-18T12:58:11.227Z,100050.45
2022-09-18T13:00:40.966Z,100052.95
2022-09-18T13:03:42.798Z,100052.98
2022-09-18T13:06:20.575Z,100060.14
2022-09-18T13:08:57.224Z,100059.77
2022-09-18T13:11:43.873Z,100057.30
2022-09-18T13:14:19.483Z,100056.06
2022-09-18T13:17:01.967Z,100055.94
2022-09-18T13:19:38.412Z,100058.67
2022-09-18T13:22:14.671Z,100063.48
2022-09-18T13:24:46.680Z,100072.40
2022-09-18T13:27:17.871Z,100073.73
2022-09-18T13:29:52.500Z,100079.27
2022-09-18T13:32:39.945Z,100080.70
2022-09-18T13:35:14.643Z,100082.70
2022-09-18T13:37:44.163Z,100091.67
2022-09-18T13:40:33.869Z,100096.77
2022-09-18T13:43:28.484Z,100101.59
2022-09-18T13:46:01.603Z,100106.00
2022-09-18T13:48:41.509Z,100104.88
2022-09-18T13:51:20.489Z,100105.44
2022-09-18T13:54:16.416Z,100105.09
2022-09-18T13:57:03.641Z,100111.32
2022-09-18T14:00:01.560Z,100112.20
2022-09-18T14:02:41.963Z,100114.73
2022-09-18T14:05:34.871Z,100123.28
2022-09-18T14:08:21.736Z,100131.59
2022-09-18T14:11:15.993Z,100131.63
2022-09-18T14:13:55.731Z,100134.34
2022-09-18T14:16:29.975Z,100130.27
2022-09-18T14:19:06.446Z,100136.84
2022-09-18T14:21:43.037Z,100134.66
2022-09-18T14:24:36.380Z,100133.90
2022-09-18T14:27:27.024Z,100133.31
2022-09-18T14:29:59.050Z,100137.27
2022-09-18T14:32:28.799Z,100143.46
2022-09-18T14:35:32.779Z,100145.83
2022-09-18T14:38:01.786Z,100155.33
2022-09-18T14:40:31.802Z,100157.63
2022-09-18T14:43:01.187Z,100162.39
2022-09-18T14:45:32.324Z,100167.42
2022-09-18T14:48:21.603Z,100165.15
2022-09-18T14:51:06.059Z,100173.31
2022-09-18T14:53:46.216Z,100175.89
2022-09-18T14:56:19.988Z,100176.55
2022-09-18T14:58:50.866Z,100184.55
2022-09-18T15:01:25.874Z,100188.68
2022-09-18T15:03:57.658Z,100195.72
2022-09-18T15:06:32.855Z,100198.84
2022-09-18T15:09:02.927Z,100201.37
2022-09-18T15:11:46.941Z,100206.42
2022-09-18T15:14:37.296Z,100211.48
2022-09-18T15:17:27.776Z,100216.66
2022-09-18T15:20:09.352Z,100219.83
2022-09-18T15:22:38.247Z,100218.41
2022-09-18T15:25:16.462Z,100221.03
2022-09-18T15:27:45.562Z,100218.57
2022-09-18T15:30:22.936Z,100220.26
2022-09-18T15:33:07.989Z,100226.08
2022-09-18T15:35:39.036Z,100230.80
2022-09-18T15:38:35.393Z,100231.27
2022-09-18T15:41:52.367Z,100238.84
2022-09-18T15:44:39.352Z,100246.64
2022-09-18T15:47:26.767Z,100256.00
2022-09-18T15:49:56.992Z,100262.17
2022-09-18T15:52:55.480Z,100267.60
2022-09-18T15:55:29.173Z,100270.89
2022-09-18T15:58:07.606Z,100280.23
2022-09-18T16:00:38.960Z,100282.64
2022-09-18T16:03:18.180Z,100287.80
2022-09-18T16:05:55.590Z,100285.38
2022-09-18T16:08:29.363Z,100279.95
2022-09-18T16:11:00.117Z,100281.81
2022-09-18T16:13:37.098Z,100280.86
2022-09-18T16:16:08.802Z,100286.79
2022-09-18T16:18:56.416Z,100291.79
2022-09-18T16:21:28.438Z,100292.45
2022-09-18T16:24:01.581Z,100295.41
2022-09-18T16:26:36.968Z,100299.53
2022-09-18T16:29:18.055Z,100305.43
2022-09-18T16:31:47.513Z,100308.70
2022-09-18T16:34:28.097Z,100311.77
2022-09-18T16:36:57.744Z,100319.27
2022-09-18T16:39:27.345Z,100323.73
2022-09-18T16:41:56.131Z,100324.98
2022-09-18T16:44:25.309Z,100323.96
2022-09-18T16:47:05.864Z,100322.66
2022-09-18T16:49:40.437Z,100333.85
2022-09-18T16:52:10.334Z,100339.23
2022-09-18T16:54:39.023Z,100342.36
2022-09-18T16:57:18.539Z,100344.48
2022-09-18T16:59:48.977Z,100346.43
2022-09-18T17:02:24.363Z,100352.05
2022-09-18T17:04:54.971Z,100354.95
2022-09-18T17:07:23.550Z,100358.33
2022-09-18T17:09:52.439Z,100366.35
2022-09-18T17:12:20.921Z,100366.95
2022-09-18T17:14:49.731Z,100372.67
2022-09-18T17:17:18.776Z,100371.36
2022-09-18T17:19:47.893Z,100374.19
2022-09-18T17:22:19.918Z,100377.70
2022-09-18T17:24:52.318Z,100387.66
2022-09-18T17:27:25.648Z,100397.60
2022-09-18T17:29:54.940Z,100397.23
2022-09-18T17:32:24.190Z,100396.95
2022-09-18T17:34:53.031Z,100398.81
2022-09-18T17:37:21.612Z,100405.21
2022-09-18T17:39:50.348Z,100404.07
2022-09-18T17:42:19.190Z,100403.46
2022-09-18T17:44:47.980Z,100413.13
2022-09-18T17:47:16.813Z,100415.59
2022-09-18T17:49:45.530Z,100410.31
2022-09-18T17:52:15.476Z,100415.85
2022-09-18T17:54:44.094Z,100416.98
2022-09-18T17:57:12.847Z,100417.23
2022-09-18T17:59:44.085Z,100421.67
2022-09-18T18:02:13.978Z,100430.42
2022-09-18T18:04:44.078Z,100437.70
2022-09-18T18:07:13.867Z,100441.45
2022-09-18T18:09:43.576Z,100445.18
2022-09-18T18:12:13.305Z,100446.80
2022-09-18T18:14:42.050Z,100454.06
2022-09-18T18:17:10.634Z,100460.20
2022-09-18T18:19:39.237Z,100466.34
2022-09-18T18:22:07.903Z,100473.48
2022-09-18T18:24:36.592Z,100473.92
2022-09-18T18:27:05.865Z,100472.66
2022-09-18T18:29:34.827Z,100479.27
2022-09-18T18:32:03.545Z,100485.37
2022-09-18T18:34:33.182Z,100489.73
2022-09-18T18:37:03.405Z,100494.93
2022-09-18T18:39:32.222Z,100495.56
2022-09-18T18:42:00.874Z,100497.75
2022-09-18T18:44:29.463Z,100499.94
2022-09-18T18:46:59.522Z,100502.13
2022-09-18T18:49:28.207Z,100507.52
2022-09-18T18:51:58.599Z,100515.52
2022-09-18T18:54:27.588Z,100518.68
2022-09-18T18:56:56.492Z,100522.65
2022-09-18T18:59:26.159Z,100528.48
2022-09-18T19:01:57.159Z,100530.63
2022-09-18T19:04:26.809Z,100532.77
2022-09-18T19:06:56.974Z,100535.52
2022-09-18T19:09:29.025Z,100532.75
2022-09-18T19:11:57.919Z,100531.71
2022-09-18T19:14:31.788Z,100530.19
2022-09-18T19:17:00.414Z,100532.20
2022-09-18T19:19:29.608Z,100532.96
2022-09-18T19:22:01.331Z,100532.32
2022-09-18T19:24:30.840Z,100533.01
2022-09-18T19:26:59.556Z,100535.62
2022-09-18T19:29:30.905Z,100537.09
2022-09-18T19:32:00.717Z,100541.90
2022-09-18T19:34:29.304Z,100543.56
2022-09-18T19:36:59.648Z,100544.71
2022-09-18T19:39:28.420Z,100549.81
2022-09-18T19:42:15.319Z,100551.76
2022-09-18T19:44:51.600Z,100556.27
2022-09-18T19:47:26.700Z,100561.63
2022-09-18T19:49:57.878Z,100564.70
2022-09-18T19:52:30.763Z,100570.83
2022-09-18T19:55:00.109Z,100575.88
2022-09-18T19:57:30.435Z,100576.84
2022-09-18T20:00:01.413Z,100579.59
2022-09-18T20:02:29.949Z,100577.55
2022-09-18T20:04:58.711Z,100578.32
2022-09-18T20:07:27.492Z,100584.02
2022-09-18T20:09:56.410Z,100586.41
2022-09-18T20:12:25.065Z,100588.45
2022-09-18T20:14:54.072Z,100592.45
2022-09-18T20:17:23.224Z,100599.56
2022-09-18T20:19:52.532Z,100607.77
2022-09-18T20:22:21.407Z,100615.40
2022-09-18T20:24:56.608Z,100620.75
2022-09-18T20:27:25.415Z,100623.84
2022-09-18T20:29:54.127Z,100623.58
2022-09-18T20:32:22.815Z,100626.46
2022-09-18T20:34:51.429Z,100629.20
2022-09-18T20:37:19.972Z,100630.74
2022-09-18T20:39:48.537Z,100632.77
2022-09-18T20:42:17.593Z,100636.93
2022-09-18T20:44:46.415Z,100635.98
2022-09-18T20:47:16.427Z,100640.60
2022-09-18T20:49:46.306Z,100641.36
2022-09-18T20:52:14.824Z,100644.23
2022-09-18T20:54:43.379Z,100648.43
2022-09-18T20:57:12.841Z,100650.41
2022-09-18T20:59:44.029Z,100653.44
2022-09-18T21:02:12.780Z,100651.80
2022-09-18T21:04:46.545Z,100653.80
2022-09-18T21:07:16.198Z,100657.88
2022-09-18T21:09:44.695Z,100655.98
2022-09-18T21:12:13.359Z,100645.88
2022-09-18T21:14:42.881Z,100652.41
2022-09-18T21:17:11.616Z,100654.20
2022-09-18T21:19:40.465Z,100660.38
2022-09-18T21:22:09.032Z,100662.69
2022-09-18T21:24:37.805Z,100666.60
2022-09-18T21:27:07.071Z,100667.71
2022-09-18T21:29:36.144Z,100667.95
2022-09-18T21:32:04.858Z,100670.23
2022-09-18T21:34:34.506Z,100669.77
2022-09-18T21:37:11.633Z,100670.88
2022-09-18T21:39:40.245Z,100671.29
2022-09-18T21:42:09.905Z,100673.49
2022-09-18T21:44:39.416Z,100673.95
2022-09-18T21:47:11.083Z,100669.45
2022-09-18T21:49:39.667Z,100667.38
2022-09-18T21:52:09.198Z,100666.17
2022-09-18T21:54:37.819Z,100672.34
2022-09-18T21:57:07.469Z,100668.34
2022-09-18T21:59:36.785Z,100671.89
2022-09-18T22:02:06.524Z,100672.42
2022-09-18T22:04:35.187Z,100675.52
2022-09-18T22:07:04.353Z,100675.88
2022-09-18T22:09:39.135Z,100674.67
2022-09-18T22:12:08.093Z,100672.94
2022-09-18T22:14:38.529Z,100672.11
2022-09-18T22:17:09.332Z,100675.31
2022-09-18T22:19:41.289Z,100679.19
2022-09-18T22:22:11.499Z,100682.38
2022-09-18T22:24:40.160Z,100681.73
2022-09-18T22:27:08.941Z,100691.11
2022-09-18T22:29:39.646Z,100692.65
2022-09-18T22:32:11.100Z,100695.14
2022-09-18T22:34:41.675Z,100692.36
2022-09-18T22:37:10.839Z,100690.81
2022-09-18T22:39:39.317Z,100690.14
2022-09-18T22:42:07.876Z,100694.70
2022-09-18T22:44:36.384Z,100696.65
2022-09-18T22:47:05.159Z,100694.09
2022-09-18T22:49:33.669Z,100701.11
2022-09-18T22:52:02.426Z,100706.92
2022-09-18T22:54:31.143Z,100705.55
2022-09-18T22:56:59.783Z,100702.98
2022-09-18T22:59:29.118Z,100705.45
2022-09-18T23:02:04.210Z,100710.06
2022-09-18T23:04:33.893Z,100715.40
2022-09-18T23:07:04.153Z,100717.75
2022-09-18T23:09:32.699Z,100716.23
2022-09-18T23:12:01.311Z,100719.56
2022-09-18T23:14:31.562Z,100722.23
2022-09-18T23:17:01.017Z,100715.29
2022-09-18T23:19:32.410Z,100709.89
2022-09-18T23:22:02.237Z,100713.79
2022-09-18T23:24:31.951Z,100715.58
2022-09-18T23:27:00.612Z,100722.46
2022-09-18T23:29:32.155Z,100730.02
2022-09-18T23:32:00.900Z,100739.34
2022-09-18T23:34:32.166Z,100745.71
2022-09-18T23:37:01.398Z,100747.19
2022-09-18T23:39:32.774Z,100750.73
2022-09-18T23:42:03.498Z,100754.44
2022-09-18T23:44:32.807Z,100755.34
2022-09-18T23:47:01.718Z,100757.09
2022-09-18T23:49:30.607Z,100766.04
2022-09-18T23:51:59.981Z,100765.87
2022-09-18T23:54:31.268Z,100761.71
2022-09-18T23:57:00.169Z,100762.42
2022-09-18T23:59:28.905Z,100763.68
